Pagina principale
METAR-TAF:

METAR-TAF

Aeroporti :

Aeroporto di Helsinki-Vantaa

Helsinki, Finlandia

latitudine: 60-19N, longitudine: 024-58E, altezza: 51 m

Osservazione

Il bollettino è stato emesso 25 minuti fa, alle 18:20 UTC
Vento 5 kt da sud/sud-est
Temperature 17°C
Umidità 36%
Pressione 1029 hPa
Visibilità 10 km o più
nessuna nube inferiore a 1500 m e nessun cumulonembo

METAR: EFHK 251820Z 15005KT CAVOK 17/02 Q1029 NOSIG

Ora: 21:45 (18:45 UTC)

Previsione

Il bollettino è stato emesso 1 ora e 22 minuti fa, alle 17:23 UTC
Previsione valida dal 25 alle 18 UTC al 26 alle 18 UTC
Vento 8 kt da sud/sud-est
Visibilità 10 km o più
nessuna nube inferiore a 1500 m e nessun cumulonembo

TAF: EFHK 251723Z 2518/2618 16008KT CAVOK

Osservazioni e previsioni meteorologiche di più di 4000 aeroporti (messaggi METAR e TAF).

Le stazioni disponibili sono rappresentate dai dischi gialli e rossi sulla carta.

Puntare il mouse per vedere il nome della stazione.

Clicca sopra per visualizzare le osservazioni e previsioni meteorologiche.

Per cambiare la mappa : fare clic sui pulsanti verdi con una croce nera per ingrandire, il pulsante verde con un trattino per diminuire, o sulla freccia verde per le mappe adiacenti.


METAR-TAF: